Time;durP1;ratioP1;P1;durP2;ratioP2;P2;SDS_P1;SDS_P2;PMS_P1;PMS_P2;Temp;Humidity;BMP_temperature;BMP_pressure;BME280_temperature;BME280_humidity;BME280_pressure;Samples;Min_cycle;Max_cycle;Signal;HPM_P1;HPM_P2
2021/08/01 00:00:38;;;;;;;5.13;4.70;;;16.90;99.90;;;;;;6304867;22;20023;-79
2021/08/01 00:03:06;;;;;;;5.63;4.65;;;16.90;99.90;;;;;;6249916;22;20026;-79
2021/08/01 00:05:35;;;;;;;8.05;4.85;;;16.90;99.90;;;;;;6313805;22;20015;-79
2021/08/01 00:08:04;;;;;;;4.63;4.18;;;16.90;99.90;;;;;;6275015;22;20031;-80
2021/08/01 00:10:32;;;;;;;5.85;4.25;;;16.80;99.90;;;;;;6285453;22;20022;-79
2021/08/01 00:13:00;;;;;;;6.28;5.13;;;16.80;99.90;;;;;;6302380;22;20031;-80
2021/08/01 00:15:28;;;;;;;6.35;4.88;;;16.70;99.90;;;;;;6308947;22;20466;-79
2021/08/01 00:17:56;;;;;;;6.93;4.75;;;16.70;99.90;;;;;;6289156;22;20007;-80
2021/08/01 00:20:23;;;;;;;5.97;4.57;;;16.80;99.90;;;;;;6307839;22;20023;-80
2021/08/01 00:22:51;;;;;;;5.90;5.30;;;16.80;99.90;;;;;;6315140;22;20430;-80
2021/08/01 00:25:19;;;;;;;6.50;5.28;;;16.80;99.90;;;;;;6288753;22;20022;-80
2021/08/01 00:27:46;;;;;;;6.57;4.97;;;16.80;99.90;;;;;;6310793;22;20477;-80
2021/08/01 00:30:14;;;;;;;7.10;4.28;;;16.70;99.90;;;;;;6316773;22;20460;-80
2021/08/01 00:32:43;;;;;;;6.50;5.75;;;16.70;99.90;;;;;;6306833;22;20023;-80
2021/08/01 00:35:11;;;;;;;8.27;6.70;;;16.70;99.90;;;;;;6313416;22;20035;-80
2021/08/01 00:37:39;;;;;;;10.10;5.80;;;16.70;99.90;;;;;;6316527;22;20011;-83
2021/08/01 00:40:08;;;;;;;4.95;4.45;;;16.80;99.90;;;;;;6281060;22;20484;-83
2021/08/01 00:42:35;;;;;;;6.82;4.95;;;16.80;99.90;;;;;;6288230;22;20015;-83
2021/08/01 00:45:07;;;;;;;5.78;4.90;;;16.80;99.90;;;;;;6228209;22;20011;-83
2021/08/01 00:47:36;;;;;;;9.27;6.10;;;16.80;99.90;;;;;;6277687;22;20442;-83
2021/08/01 00:50:07;;;;;;;7.80;5.13;;;16.80;99.90;;;;;;6288992;22;20022;-84
2021/08/01 00:52:36;;;;;;;7.40;4.63;;;16.90;99.90;;;;;;6277593;22;20030;-83
2021/08/01 00:55:06;;;;;;;6.82;4.57;;;16.80;99.90;;;;;;6276621;22;20031;-84
2021/08/01 00:57:34;;;;;;;5.72;5.15;;;16.90;99.90;;;;;;6286172;22;20026;-84
2021/08/01 01:00:07;;;;;;;6.30;5.05;;;16.90;99.90;;;;;;6251825;22;20024;-79
2021/08/01 01:02:37;;;;;;;7.97;4.63;;;16.90;99.90;;;;;;6288335;22;20011;-79
2021/08/01 01:05:22;;;;;;;4.97;4.47;;;16.90;99.90;;;;;;6316344;22;20007;-79
2021/08/01 01:07:59;;;;;;;7.05;5.60;;;16.80;99.90;;;;;;6310031;22;20034;-79
2021/08/01 01:10:55;;;;;;;7.20;5.22;;;16.80;99.90;;;;;;6304994;22;20579;-80
2021/08/01 01:13:37;;;;;;;6.18;5.63;;;16.70;99.90;;;;;;6254803;22;20597;-79
2021/08/01 01:16:05;;;;;;;8.50;5.15;;;16.70;99.90;;;;;;6308670;22;20027;-79
2021/08/01 01:18:46;;;;;;;6.78;4.43;;;16.70;99.90;;;;;;6288461;22;20007;-80
2021/08/01 01:21:15;;;;;;;6.22;4.15;;;16.70;99.90;;;;;;6288465;22;20011;-80
2021/08/01 01:23:56;;;;;;;5.25;4.60;;;16.70;99.90;;;;;;6283033;22;20020;-80
2021/08/01 01:27:15;;;;;;;6.38;4.50;;;16.70;99.90;;;;;;6313778;22;20438;-80
2021/08/01 01:30:00;;;;;;;7.25;4.50;;;16.70;99.90;;;;;;6263208;22;20338;-79
2021/08/01 01:33:11;;;;;;;6.82;4.65;;;16.70;99.90;;;;;;6279281;22;20030;-79
2021/08/01 01:35:48;;;;;;;7.43;4.80;;;16.70;99.90;;;;;;6251030;22;20507;-79
2021/08/01 01:38:17;;;;;;;6.57;5.30;;;16.70;99.90;;;;;;6277445;22;20450;-79
2021/08/01 01:41:06;;;;;;;5.30;4.32;;;16.70;99.90;;;;;;6263023;22;20023;-79
2021/08/01 01:43:52;;;;;;;7.78;5.55;;;16.70;99.90;;;;;;6282529;22;20023;-80
2021/08/01 01:46:20;;;;;;;6.43;4.10;;;16.70;99.90;;;;;;6288585;22;20026;-79
2021/08/01 01:48:49;;;;;;;8.35;6.43;;;16.70;99.90;;;;;;6278268;22;20030;-80
2021/08/01 01:51:18;;;;;;;7.35;4.85;;;16.60;99.90;;;;;;6284417;22;20019;-79
2021/08/01 01:53:47;;;;;;;5.40;4.80;;;16.60;99.90;;;;;;6288766;22;20018;-79
2021/08/01 01:56:17;;;;;;;9.60;6.13;;;16.70;99.90;;;;;;6279519;22;20023;-79
2021/08/01 01:58:44;;;;;;;10.95;6.55;;;16.70;99.90;;;;;;6279575;22;20015;-79
2021/08/01 02:01:12;;;;;;;6.57;5.20;;;16.70;99.90;;;;;;6315767;22;20299;-79
2021/08/01 02:03:42;;;;;;;5.43;4.68;;;16.70;99.90;;;;;;6309835;22;20024;-79
2021/08/01 02:06:29;;;;;;;5.50;4.40;;;16.70;99.90;;;;;;6308407;22;20007;-80
2021/08/01 02:09:20;;;;;;;6.28;4.85;;;16.70;99.90;;;;;;6249587;22;20034;-80
2021/08/01 02:12:20;;;;;;;4.88;4.22;;;16.70;99.90;;;;;;6274405;22;20023;-80
2021/08/01 02:15:06;;;;;;;5.05;4.65;;;16.80;99.90;;;;;;6227057;22;20015;-80
2021/08/01 02:17:41;;;;;;;6.47;5.53;;;16.80;99.90;;;;;;6288339;22;20177;-80
2021/08/01 02:20:16;;;;;;;4.90;4.22;;;16.70;99.90;;;;;;6307447;22;20030;-80
2021/08/01 02:23:05;;;;;;;14.90;5.90;;;16.60;99.90;;;;;;6276599;22;20469;-80
2021/08/01 02:25:33;;;;;;;8.98;6.63;;;16.60;99.90;;;;;;6287440;22;20015;-80
2021/08/01 02:28:07;;;;;;;22.17;5.65;;;16.50;99.90;;;;;;6281257;22;20019;-80
2021/08/01 02:30:39;;;;;;;9.80;6.28;;;16.50;99.90;;;;;;6314860;22;20018;-80
2021/08/01 02:33:07;;;;;;;11.57;5.68;;;16.50;99.90;;;;;;6287585;22;20011;-79
2021/08/01 02:35:36;;;;;;;8.23;5.78;;;16.50;99.90;;;;;;6257451;22;20019;-79
2021/08/01 02:38:05;;;;;;;6.97;6.32;;;16.50;99.90;;;;;;6262573;22;20011;-83
2021/08/01 02:40:36;;;;;;;8.88;6.13;;;16.50;99.90;;;;;;6249302;22;20028;-84
2021/08/01 02:43:08;;;;;;;6.20;4.18;;;16.50;99.90;;;;;;6250971;22;20011;-81
2021/08/01 02:45:37;;;;;;;5.18;4.68;;;16.40;99.90;;;;;;6314846;22;20015;-81
2021/08/01 02:48:10;;;;;;;10.40;3.38;;;16.00;99.90;;;;;;6250868;22;20020;-80
2021/08/01 02:50:40;;;;;;;7.38;3.65;;;15.70;99.90;;;;;;6313950;22;20434;-82
2021/08/01 02:53:10;;;;;;;;;;;15.30;99.90;;;;;;6288395;22;20015;-82
2021/08/01 02:55:43;;;;;;;4.47;3.88;;;15.10;99.90;;;;;;6256766;22;19918;-81
2021/08/01 02:58:11;;;;;;;;;;;14.80;99.90;;;;;;6250936;22;20030;-80
2021/08/01 03:00:47;;;;;;;3.97;3.55;;;14.60;99.90;;;;;;6277892;22;19942;-80
2021/08/01 03:03:18;;;;;;;10.27;6.93;;;14.50;99.90;;;;;;6284034;22;20334;-80
2021/08/01 03:05:47;;;;;;;6.45;3.83;;;14.40;99.90;;;;;;6287817;22;20307;-81
2021/08/01 03:08:15;;;;;;;5.10;4.68;;;14.30;99.90;;;;;;6275931;22;20027;-80
2021/08/01 03:10:48;;;;;;;7.00;4.47;;;14.30;99.90;;;;;;6284572;22;20018;-81
2021/08/01 03:13:18;;;;;;;6.60;4.75;;;14.30;99.90;;;;;;6262708;22;20019;-83
2021/08/01 03:15:46;;;;;;;5.07;4.57;;;14.20;99.90;;;;;;6281816;22;20350;-83
2021/08/01 03:18:14;;;;;;;5.15;4.60;;;14.30;99.90;;;;;;6287712;22;20015;-83
2021/08/01 03:20:42;;;;;;;11.60;6.43;;;14.30;99.90;;;;;;6304015;22;20034;-80
2021/08/01 03:23:21;;;;;;;6.47;4.68;;;14.30;99.90;;;;;;6310692;22;20015;-80
2021/08/01 03:26:21;;;;;;;6.72;5.15;;;14.30;99.90;;;;;;6236422;22;20476;-80
2021/08/01 03:28:50;;;;;;;6.22;5.60;;;14.20;99.90;;;;;;6277855;22;20021;-80
2021/08/01 03:31:17;;;;;;;9.18;8.23;;;14.20;99.90;;;;;;6311244;22;20030;-80
2021/08/01 03:33:49;;;;;;;10.10;5.88;;;14.20;99.90;;;;;;6287842;22;20334;-80
2021/08/01 03:36:19;;;;;;;8.30;5.03;;;14.20;99.90;;;;;;6306680;22;20534;-81
2021/08/01 03:39:13;;;;;;;7.07;5.35;;;14.20;99.90;;;;;;6268253;22;20015;-81
2021/08/01 03:41:44;;;;;;;5.18;4.75;;;14.10;99.90;;;;;;6285998;22;20026;-81
2021/08/01 03:44:19;;;;;;;8.45;6.47;;;14.10;99.90;;;;;;6279287;22;20027;-81
2021/08/01 03:46:47;;;;;;;7.60;5.28;;;14.00;99.90;;;;;;6313107;22;20018;-81
2021/08/01 03:49:15;;;;;;;5.13;4.18;;;14.00;99.90;;;;;;6315080;22;20011;-80
2021/08/01 03:51:43;;;;;;;5.32;4.85;;;14.00;99.90;;;;;;6308569;22;20023;-80
2021/08/01 03:54:10;;;;;;;8.40;5.00;;;14.00;99.90;;;;;;6286765;22;20026;-81
2021/08/01 03:56:40;;;;;;;11.32;4.78;;;14.00;99.90;;;;;;6304199;22;20038;-80
2021/08/01 03:59:07;;;;;;;5.63;4.70;;;13.90;99.90;;;;;;6277905;22;20019;-81
2021/08/01 04:01:36;;;;;;;8.30;5.40;;;14.00;99.90;;;;;;6315034;22;20339;-81
2021/08/01 04:04:05;;;;;;;16.92;7.13;;;13.90;99.90;;;;;;6307833;22;20050;-80
2021/08/01 04:06:33;;;;;;;8.65;5.72;;;13.90;99.90;;;;;;6314122;22;20018;-80
2021/08/01 04:09:04;;;;;;;7.88;5.65;;;13.80;99.90;;;;;;6314753;22;20011;-79
2021/08/01 04:11:33;;;;;;;4.45;4.05;;;13.80;99.90;;;;;;6308836;22;20018;-80
2021/08/01 04:14:01;;;;;;;4.47;4.07;;;13.60;99.90;;;;;;6315056;22;20011;-81
2021/08/01 04:16:29;;;;;;;5.78;4.70;;;13.50;99.90;;;;;;6303911;22;20024;-81
2021/08/01 04:18:57;;;;;;;7.25;5.05;;;13.40;99.90;;;;;;6285010;22;20038;-80
2021/08/01 04:21:24;;;;;;;6.20;5.57;;;13.40;99.90;;;;;;6313379;22;20015;-80
2021/08/01 04:23:52;;;;;;;6.75;3.75;;;13.40;99.90;;;;;;6308363;22;20034;-81
2021/08/01 04:26:20;;;;;;;6.28;4.30;;;13.40;99.90;;;;;;6314208;22;20015;-80
2021/08/01 04:28:47;;;;;;;6.78;4.78;;;13.40;99.90;;;;;;6303973;22;20468;-80
2021/08/01 04:31:17;;;;;;;7.95;5.40;;;13.50;99.90;;;;;;6311157;22;20023;-81
2021/08/01 04:33:46;;;;;;;4.07;3.78;;;13.60;99.90;;;;;;6314660;22;20019;-80
2021/08/01 04:36:16;;;;;;;10.98;5.90;;;13.60;99.90;;;;;;6306648;22;20031;-81
2021/08/01 04:38:44;;;;;;;2.58;2.38;;;13.50;99.90;;;;;;6313223;22;20021;-79
2021/08/01 04:41:13;;;;;;;1.85;1.70;;;13.50;99.90;;;;;;6313596;22;20018;-78
2021/08/01 04:43:40;;;;;;;2.03;1.80;;;13.40;99.90;;;;;;6309465;22;20023;-79
2021/08/01 04:46:11;;;;;;;12.75;3.05;;;13.40;99.90;;;;;;6314477;22;20019;-79
2021/08/01 04:48:41;;;;;;;1.83;1.73;;;13.30;99.90;;;;;;6303690;22;20019;-80
2021/08/01 04:51:08;;;;;;;1.70;1.60;;;13.30;99.90;;;;;;6311100;22;20334;-79
2021/08/01 04:53:37;;;;;;;10.10;1.55;;;13.20;99.90;;;;;;6304335;22;20045;-81
2021/08/01 04:56:09;;;;;;;1.92;1.40;;;13.20;99.90;;;;;;6279300;22;20027;-79
2021/08/01 04:58:37;;;;;;;1.35;1.25;;;13.20;99.90;;;;;;6279134;22;20015;-80
2021/08/01 05:01:17;;;;;;;1.73;1.13;;;13.10;99.90;;;;;;6314412;22;20016;-80
2021/08/01 05:03:45;;;;;;;2.97;1.52;;;13.10;99.90;;;;;;6305067;22;20030;-80
2021/08/01 05:06:13;;;;;;;1.63;1.52;;;13.00;99.90;;;;;;6316451;22;20018;-81
2021/08/01 05:08:41;;;;;;;3.00;1.77;;;13.00;99.90;;;;;;6279374;22;20466;-82
2021/08/01 05:11:12;;;;;;;2.92;1.70;;;13.00;99.90;;;;;;6304392;22;20028;-80
2021/08/01 05:13:39;;;;;;;1.48;1.38;;;13.00;99.90;;;;;;6316847;22;20007;-81
2021/08/01 05:16:07;;;;;;;1.20;1.10;;;13.00;99.90;;;;;;6282217;22;20019;-79
2021/08/01 05:18:35;;;;;;;2.03;1.80;;;13.00;99.90;;;;;;6315645;22;20018;-79
2021/08/01 05:21:03;;;;;;;1.77;1.13;;;13.00;99.90;;;;;;6315377;22;20014;-79
2021/08/01 05:23:30;;;;;;;1.83;1.25;;;13.00;99.90;;;;;;6309967;22;20020;-80
2021/08/01 05:25:58;;;;;;;1.38;1.27;;;13.00;99.90;;;;;;6312254;22;20015;-79
2021/08/01 05:28:26;;;;;;;1.80;1.10;;;13.00;99.90;;;;;;6307696;22;20026;-78
2021/08/01 05:30:54;;;;;;;1.92;1.60;;;13.00;99.90;;;;;;6314119;22;20015;-80
2021/08/01 05:33:21;;;;;;;2.08;1.77;;;13.00;99.90;;;;;;6316234;22;20798;-80
2021/08/01 05:35:49;;;;;;;2.97;1.70;;;13.00;99.90;;;;;;6276918;22;20027;-81
2021/08/01 05:38:16;;;;;;;1.50;1.40;;;13.00;99.90;;;;;;6315999;22;20007;-81
2021/08/01 05:40:44;;;;;;;1.63;1.52;;;13.00;99.90;;;;;;6276130;22;20030;-81
2021/08/01 05:43:12;;;;;;;1.52;1.42;;;13.00;99.90;;;;;;6260132;22;20011;-80
2021/08/01 05:45:40;;;;;;;4.05;2.30;;;13.00;99.90;;;;;;6316159;22;20022;-79
2021/08/01 05:48:09;;;;;;;1.52;1.42;;;13.00;99.90;;;;;;6281187;22;20015;-79
2021/08/01 05:50:36;;;;;;;2.60;1.50;;;13.00;99.90;;;;;;6314562;22;20022;-80
2021/08/01 05:53:04;;;;;;;1.20;1.10;;;13.00;99.90;;;;;;6315526;22;20015;-80
2021/08/01 05:55:32;;;;;;;2.95;1.42;;;13.00;99.90;;;;;;6310492;22;20023;-79
2021/08/01 05:57:59;;;;;;;1.30;1.02;;;13.00;99.90;;;;;;6283882;22;20011;-79
2021/08/01 06:00:28;;;;;;;2.15;1.95;;;13.00;99.90;;;;;;6306715;22;20023;-79
2021/08/01 06:02:56;;;;;;;1.88;1.77;;;13.00;99.90;;;;;;6313940;22;20315;-79
2021/08/01 06:05:25;;;;;;;1.77;1.67;;;13.00;99.90;;;;;;6314799;22;20018;-82
2021/08/01 06:07:52;;;;;;;4.47;1.45;;;13.00;99.90;;;;;;6276144;22;20351;-79
2021/08/01 06:10:20;;;;;;;1.60;1.50;;;13.10;99.90;;;;;;6315305;22;20015;-80
2021/08/01 06:12:48;;;;;;;1.77;1.67;;;13.10;99.90;;;;;;6305843;22;20023;-78
2021/08/01 06:15:16;;;;;;;3.35;2.30;;;13.10;99.90;;;;;;6311947;22;20038;-78
2021/08/01 06:17:43;;;;;;;1.50;1.40;;;13.10;99.90;;;;;;6315771;22;20007;-81
2021/08/01 06:20:11;;;;;;;1.75;1.65;;;13.20;99.90;;;;;;6306878;22;20073;-78
2021/08/01 06:22:39;;;;;;;2.17;1.92;;;13.20;99.90;;;;;;6314555;22;20034;-79
2021/08/01 06:25:08;;;;;;;2.17;1.85;;;13.30;99.90;;;;;;6314638;22;20007;-79
2021/08/01 06:27:35;;;;;;;2.10;1.50;;;13.30;99.90;;;;;;6310831;22;20020;-78
2021/08/01 06:30:03;;;;;;;1.73;1.63;;;13.20;99.90;;;;;;6315415;22;20011;-78
2021/08/01 06:32:31;;;;;;;2.10;1.73;;;13.20;99.90;;;;;;6306498;22;20034;-79
2021/08/01 06:34:59;;;;;;;2.00;1.90;;;13.20;99.90;;;;;;6312825;22;20030;-79
2021/08/01 06:37:27;;;;;;;2.33;2.13;;;13.20;99.90;;;;;;6315742;22;20026;-78
2021/08/01 06:39:55;;;;;;;1.63;1.52;;;13.20;99.90;;;;;;6307891;22;20019;-78
2021/08/01 06:42:22;;;;;;;1.83;1.73;;;13.20;99.90;;;;;;6315617;22;20744;-78
2021/08/01 06:44:50;;;;;;;3.20;1.70;;;13.20;99.90;;;;;;6304975;22;20034;-81
2021/08/01 06:47:18;;;;;;;3.47;2.00;;;13.10;99.90;;;;;;6311536;22;20023;-78
2021/08/01 06:49:45;;;;;;;1.90;1.73;;;13.20;99.90;;;;;;6315296;22;20015;-79
2021/08/01 06:52:33;;;;;;;3.33;2.35;;;13.20;99.90;;;;;;6306397;22;20350;-79
2021/08/01 06:55:02;;;;;;;1.50;1.40;;;13.20;99.90;;;;;;6311932;22;20023;-79
2021/08/01 06:57:30;;;;;;;2.53;1.25;;;13.20;99.90;;;;;;6312362;22;20339;-78
2021/08/01 06:59:57;;;;;;;1.65;1.55;;;13.10;99.90;;;;;;6308113;22;20026;-78
2021/08/01 07:02:25;;;;;;;1.60;1.50;;;13.10;99.90;;;;;;6315661;22;20015;-79
2021/08/01 07:04:53;;;;;;;2.78;2.00;;;13.00;99.90;;;;;;6304474;22;20114;-78
2021/08/01 07:07:21;;;;;;;1.67;1.58;;;13.00;99.90;;;;;;6311563;22;20024;-79
2021/08/01 07:09:48;;;;;;;1.63;1.52;;;13.00;99.90;;;;;;6314321;22;20880;-81
2021/08/01 07:12:19;;;;;;;1.70;1.60;;;13.00;99.90;;;;;;6276037;22;20022;-79
2021/08/01 07:14:49;;;;;;;1.60;1.50;;;13.00;99.90;;;;;;6286244;22;20023;-83
2021/08/01 07:17:22;;;;;;;3.37;1.90;;;12.90;99.90;;;;;;6315311;22;20018;-79
2021/08/01 07:19:49;;;;;;;1.85;1.75;;;12.90;99.90;;;;;;6308849;22;20023;-78
2021/08/01 07:22:17;;;;;;;3.75;1.48;;;12.80;99.90;;;;;;6314824;22;20034;-79
2021/08/01 07:24:45;;;;;;;2.28;2.08;;;12.80;99.90;;;;;;6303594;22;20477;-79
2021/08/01 07:27:16;;;;;;;4.75;1.90;;;12.90;99.90;;;;;;6311568;22;20026;-81
2021/08/01 07:29:46;;;;;;;2.80;1.80;;;12.90;99.90;;;;;;6315133;22;20015;-81
2021/08/01 07:32:14;;;;;;;3.13;1.73;;;13.00;99.90;;;;;;6307080;22;20027;-80
2021/08/01 07:34:42;;;;;;;2.92;1.55;;;13.00;99.90;;;;;;6313797;22;20015;-80
2021/08/01 07:37:09;;;;;;;1.15;1.05;;;13.00;99.90;;;;;;6315002;22;20018;-80
2021/08/01 07:39:42;;;;;;;2.17;2.00;;;13.00;99.90;;;;;;6308838;22;20338;-78
2021/08/01 07:42:10;;;;;;;2.10;1.80;;;13.20;99.90;;;;;;6314758;22;20019;-82
2021/08/01 07:44:53;;;;;;;2.53;1.90;;;13.20;99.90;;;;;;6289283;22;20019;-79
2021/08/01 07:47:23;;;;;;;2.42;2.22;;;13.10;99.90;;;;;;6311009;22;20023;-79
2021/08/01 07:49:51;;;;;;;2.65;1.58;;;13.20;99.90;;;;;;6287440;22;20015;-80
2021/08/01 07:52:20;;;;;;;2.30;2.10;;;13.20;99.90;;;;;;6306697;22;20046;-80
2021/08/01 07:54:48;;;;;;;3.05;1.90;;;13.40;99.90;;;;;;6312371;22;20022;-80
2021/08/01 07:57:22;;;;;;;5.00;2.55;;;13.40;99.90;;;;;;6313544;22;20007;-80
2021/08/01 07:59:50;;;;;;;2.15;1.50;;;13.40;99.90;;;;;;6294528;22;20020;-79
2021/08/01 08:02:18;;;;;;;1.52;1.35;;;13.40;99.90;;;;;;6315127;22;20038;-79
2021/08/01 08:04:46;;;;;;;3.95;1.88;;;13.40;99.90;;;;;;6304566;22;20465;-78
2021/08/01 08:07:14;;;;;;;1.73;1.52;;;13.60;99.90;;;;;;6311103;22;20019;-78
2021/08/01 08:09:53;;;;;;;4.22;2.33;;;13.80;99.90;;;;;;5087596;27;20452;-79
2021/08/01 08:12:21;;;;;;;3.65;2.40;;;13.80;99.90;;;;;;5054224;28;20046;-79
2021/08/01 08:14:52;;;;;;;4.20;1.95;;;13.80;99.90;;;;;;5030203;28;20041;-76
2021/08/01 08:17:22;;;;;;;3.17;2.00;;;13.90;99.90;;;;;;5059702;28;20041;-78
2021/08/01 08:19:50;;;;;;;2.22;1.58;;;14.00;99.90;;;;;;5067624;28;20052;-78
2021/08/01 08:22:17;;;;;;;3.08;2.47;;;14.00;99.90;;;;;;5068176;28;20398;-79
2021/08/01 08:24:45;;;;;;;2.22;1.73;;;13.90;99.90;;;;;;5065562;28;20056;-79
2021/08/01 08:27:13;;;;;;;1.55;1.45;;;14.10;99.90;;;;;;5067133;28;20044;-80
2021/08/01 08:29:41;;;;;;;5.68;1.95;;;14.20;99.90;;;;;;5068082;28;20040;-79
2021/08/01 08:32:08;;;;;;;2.03;1.38;;;14.10;99.90;;;;;;5099419;28;20041;-79
2021/08/01 08:34:36;;;;;;;2.72;1.77;;;14.00;99.90;;;;;;5067259;28;20056;-79
2021/08/01 08:37:04;;;;;;;1.90;1.65;;;13.90;99.90;;;;;;5066751;28;20044;-79
2021/08/01 08:39:31;;;;;;;3.20;2.10;;;13.90;99.90;;;;;;5066606;28;20041;-79
2021/08/01 08:42:00;;;;;;;1.88;1.60;;;14.10;99.90;;;;;;5067368;28;20053;-80
2021/08/01 08:44:28;;;;;;;2.15;1.88;;;14.10;99.90;;;;;;5067283;28;20033;-79
2021/08/01 08:46:56;;;;;;;2.08;1.95;;;14.20;99.90;;;;;;5067089;28;20048;-79
2021/08/01 08:49:26;;;;;;;1.50;1.33;;;14.20;99.90;;;;;;5059854;28;20049;-79
2021/08/01 08:51:54;;;;;;;1.92;1.77;;;14.30;99.90;;;;;;5046993;28;20049;-79
2021/08/01 08:54:49;;;;;;;1.98;1.77;;;14.70;99.90;;;;;;5046900;28;20119;-79
2021/08/01 08:57:25;;;;;;;2.15;1.75;;;14.90;99.90;;;;;;5059622;28;20489;-79
2021/08/01 09:00:01;;;;;;;2.22;1.67;;;14.90;99.90;;;;;;5046795;28;20064;-79
2021/08/01 09:02:28;;;;;;;2.15;1.95;;;14.80;99.90;;;;;;5047252;28;20048;-79
2021/08/01 09:04:59;;;;;;;3.35;1.58;;;14.90;99.90;;;;;;5008965;28;20050;-79
2021/08/01 09:07:27;;;;;;;2.28;2.08;;;15.00;99.90;;;;;;5066311;28;20041;-79
2021/08/01 09:09:55;;;;;;;4.47;2.55;;;15.00;99.90;;;;;;5043680;28;20060;-79
2021/08/01 09:12:23;;;;;;;2.75;1.88;;;15.10;99.90;;;;;;5062256;28;20421;-82
2021/08/01 09:15:13;;;;;;;1.50;1.33;;;15.40;99.90;;;;;;5065215;28;20049;-80
2021/08/01 09:17:42;;;;;;;2.08;1.88;;;15.30;99.90;;;;;;5065123;28;20053;-79
2021/08/01 09:20:25;;;;;;;4.20;2.03;;;15.30;99.90;;;;;;5058650;28;20516;-79
2021/08/01 09:23:02;;;;;;;1.50;1.40;;;15.30;99.90;;;;;;5053249;28;20504;-79
2021/08/01 09:25:34;;;;;;;1.60;1.15;;;15.40;99.90;;;;;;5052608;28;20385;-82
2021/08/01 09:28:09;;;;;;;1.67;1.50;;;15.40;99.90;;;;;;5053227;28;20049;-86
2021/08/01 09:30:42;;;;;;;1.83;1.60;;;15.30;99.90;;;;;;5053402;28;20052;-84
2021/08/01 09:33:11;;;;;;;1.83;1.63;;;15.30;99.90;;;;;;5046040;28;20045;-79
2021/08/01 09:35:39;;;;;;;3.28;1.50;;;15.20;99.90;;;;;;5032270;28;20045;-79
2021/08/01 09:38:07;;;;;;;2.08;1.50;;;15.30;99.90;;;;;;5032467;28;20057;-79
2021/08/01 09:40:35;;;;;;;2.90;2.00;;;15.20;99.90;;;;;;5030986;28;20045;-84
2021/08/01 09:43:13;;;;;;;2.13;1.90;;;15.20;99.90;;;;;;5052459;28;20037;-85
2021/08/01 09:45:41;;;;;;;2.72;1.55;;;15.40;99.90;;;;;;5051219;28;20457;-84
2021/08/01 09:48:19;;;;;;;1.83;1.63;;;15.70;99.90;;;;;;5050931;28;20489;-86
2021/08/01 09:50:59;;;;;;;2.58;2.15;;;15.60;99.90;;;;;;5051741;28;20048;-84
2021/08/01 09:53:28;;;;;;;4.43;3.38;;;15.40;99.90;;;;;;5051605;28;20056;-84
2021/08/01 09:56:15;;;;;;;1.67;1.50;;;15.50;99.90;;;;;;5051397;28;20049;-85
2021/08/01 09:58:44;;;;;;;1.85;1.75;;;15.60;99.90;;;;;;5050761;28;20056;-85
2021/08/01 10:01:12;;;;;;;2.97;2.67;;;15.50;99.90;;;;;;5052168;28;20041;-84
2021/08/01 10:03:42;;;;;;;1.92;1.75;;;15.70;99.90;;;;;;5051617;28;20044;-84
2021/08/01 10:06:15;;;;;;;1.85;1.67;;;15.90;99.90;;;;;;5051808;28;20048;-84
2021/08/01 10:08:55;;;;;;;2.60;2.03;;;15.90;99.90;;;;;;5050739;28;20053;-84
2021/08/01 10:11:25;;;;;;;2.50;2.25;;;15.80;99.90;;;;;;5045310;28;20045;-84
2021/08/01 10:13:55;;;;;;;2.67;2.47;;;15.60;99.90;;;;;;5033494;28;20042;-85
2021/08/01 10:16:25;;;;;;;2.53;2.33;;;15.50;99.90;;;;;;5051207;28;20040;-80
2021/08/01 10:18:53;;;;;;;3.95;1.75;;;15.50;99.90;;;;;;5052133;28;20032;-80
2021/08/01 10:21:22;;;;;;;2.00;1.60;;;15.50;99.90;;;;;;5050860;28;20497;-80
2021/08/01 10:23:56;;;;;;;3.97;2.00;;;15.70;99.90;;;;;;5050515;28;20517;-80
2021/08/01 10:26:38;;;;;;;1.73;1.63;;;16.00;99.90;;;;;;5051825;28;20045;-80
2021/08/01 10:29:12;;;;;;;1.40;1.20;;;16.00;99.90;;;;;;5066447;28;20517;-84
2021/08/01 10:31:46;;;;;;;2.55;1.75;;;16.00;99.90;;;;;;5051541;28;20040;-85
2021/08/01 10:34:31;;;;;;;2.33;1.92;;;16.00;99.90;;;;;;5066554;28;20044;-84
2021/08/01 10:36:59;;;;;;;1.98;1.80;;;15.90;99.90;;;;;;5051856;28;20044;-85
2021/08/01 10:39:30;;;;;;;1.60;1.25;;;15.90;99.90;;;;;;5051535;28;20409;-84
2021/08/01 10:42:01;;;;;;;1.77;1.55;;;15.90;99.90;;;;;;5050522;28;20049;-85
2021/08/01 10:44:29;;;;;;;1.95;1.80;;;15.80;99.90;;;;;;5050273;28;20048;-84
2021/08/01 10:47:00;;;;;;;2.47;1.90;;;15.70;99.90;;;;;;5050460;28;20052;-85
2021/08/01 10:49:28;;;;;;;1.50;1.40;;;15.60;99.90;;;;;;5042794;28;20072;-85
2021/08/01 10:51:55;;;;;;;1.88;1.77;;;15.60;99.90;;;;;;5030564;28;20045;-80
2021/08/01 10:54:24;;;;;;;1.55;1.40;;;15.60;99.90;;;;;;5046447;28;20065;-80
2021/08/01 10:57:15;;;;;;;1.65;1.55;;;15.50;99.90;;;;;;5030714;28;20045;-80
2021/08/01 10:59:46;;;;;;;2.95;1.60;;;15.50;99.90;;;;;;5030564;28;20060;-80
2021/08/01 11:02:21;;;;;;;3.80;1.83;;;15.40;99.90;;;;;;5031995;28;20060;-80
2021/08/01 11:04:52;;;;;;;3.22;1.48;;;15.40;99.90;;;;;;5053742;28;20052;-80
2021/08/01 11:07:26;;;;;;;3.47;1.70;;;15.40;99.90;;;;;;5031597;28;20056;-85
2021/08/01 11:10:24;;;;;;;2.08;1.98;;;15.40;99.90;;;;;;5030987;28;20049;-84
2021/08/01 11:12:51;;;;;;;1.77;1.58;;;15.50;99.90;;;;;;5070858;28;20037;-84
2021/08/01 11:15:43;;;;;;;1.60;1.50;;;15.40;99.90;;;;;;5071571;28;20048;-84
2021/08/01 11:18:11;;;;;;;1.88;1.77;;;15.40;99.90;;;;;;5052882;28;20047;-84
2021/08/01 11:20:44;;;;;;;2.20;2.10;;;15.30;99.90;;;;;;5050982;28;20049;-83
2021/08/01 11:23:12;;;;;;;3.47;1.95;;;15.20;99.90;;;;;;5051146;28;20040;-85
2021/08/01 11:25:42;;;;;;;2.65;2.22;;;15.10;99.90;;;;;;5049753;28;20052;-84
2021/08/01 11:28:10;;;;;;;2.92;1.73;;;15.10;99.90;;;;;;5049724;28;20048;-84
2021/08/01 11:30:52;;;;;;;3.72;2.58;;;15.10;99.90;;;;;;5032415;28;20049;-84
2021/08/01 11:33:29;;;;;;;2.20;2.00;;;15.00;99.90;;;;;;5051372;28;20048;-84
2021/08/01 11:39:02;;;;;;;2.10;1.90;;;15.20;99.90;;;;;;5050662;28;20044;-84
2021/08/01 11:41:38;;;;;;;2.20;1.85;;;15.20;99.90;;;;;;5041878;28;20545;-84
2021/08/01 11:44:21;;;;;;;2.38;1.85;;;15.40;99.90;;;;;;5070634;28;20056;-84
2021/08/01 11:47:04;;;;;;;3.28;2.15;;;15.40;99.90;;;;;;5070746;28;20049;-84
2021/08/01 11:49:43;;;;;;;2.47;2.10;;;15.40;99.90;;;;;;5071031;28;20052;-84
2021/08/01 11:52:13;;;;;;;2.78;2.38;;;15.50;99.90;;;;;;5070693;28;20505;-84
2021/08/01 11:54:43;;;;;;;2.10;1.90;;;15.50;99.90;;;;;;5044072;28;20057;-84
2021/08/01 11:57:13;;;;;;;5.57;1.92;;;15.50;99.90;;;;;;5013144;28;20053;-83
2021/08/01 11:59:42;;;;;;;2.17;1.95;;;15.50;99.90;;;;;;5030149;28;20355;-82
2021/08/01 12:02:17;;;;;;;2.55;2.20;;;15.40;99.90;;;;;;5062649;28;20057;-83
2021/08/01 12:04:53;;;;;;;2.55;1.88;;;15.40;99.90;;;;;;5028933;28;20056;-80
2021/08/01 12:07:22;;;;;;;2.13;1.92;;;15.30;99.90;;;;;;5030339;28;20046;-80
2021/08/01 12:09:49;;;;;;;3.58;3.25;;;15.20;99.90;;;;;;5029709;28;20041;-80
2021/08/01 12:12:27;;;;;;;1.90;1.80;;;15.10;99.90;;;;;;5032032;28;20049;-80
2021/08/01 12:14:55;;;;;;;6.63;2.13;;;15.10;99.90;;;;;;5030139;28;20046;-80
2021/08/01 12:17:23;;;;;;;4.15;2.55;;;15.20;99.90;;;;;;5042141;28;20501;-81
2021/08/01 12:19:53;;;;;;;2.47;1.80;;;15.20;99.90;;;;;;5050002;28;20049;-80
2021/08/01 12:22:22;;;;;;;2.63;1.45;;;15.20;99.90;;;;;;5050354;28;20056;-80
2021/08/01 12:24:56;;;;;;;2.33;2.08;;;15.10;99.90;;;;;;5049137;28;20819;-79
2021/08/01 12:27:29;;;;;;;2.80;1.73;;;14.90;99.90;;;;;;5048736;28;20045;-79
2021/08/01 12:30:02;;;;;;;2.88;1.95;;;14.90;99.90;;;;;;5050497;28;20041;-79
2021/08/01 12:32:35;;;;;;;4.53;2.22;;;14.80;99.90;;;;;;5081980;28;20385;-80
2021/08/01 12:35:14;;;;;;;3.50;2.88;;;14.90;99.90;;;;;;5049478;28;20062;-79
2021/08/01 12:38:03;;;;;;;2.17;1.80;;;14.80;99.90;;;;;;5050449;28;20041;-79
2021/08/01 12:40:34;;;;;;;6.07;2.13;;;14.70;99.90;;;;;;5049081;28;20045;-79
2021/08/01 12:43:12;;;;;;;3.33;2.55;;;14.70;99.90;;;;;;5069955;28;20047;-79
2021/08/01 12:45:42;;;;;;;2.72;2.53;;;14.70;99.90;;;;;;5070250;28;20792;-79
2021/08/01 12:48:20;;;;;;;4.53;2.50;;;14.60;99.90;;;;;;5068089;28;20048;-84
2021/08/01 12:51:03;;;;;;;3.50;3.17;;;14.60;99.90;;;;;;5049462;28;20052;-85
2021/08/01 12:53:31;;;;;;;4.38;3.03;;;14.50;99.90;;;;;;5032804;28;20052;-83
2021/08/01 12:56:01;;;;;;;3.17;2.80;;;14.50;99.90;;;;;;5049757;28;20493;-82
2021/08/01 12:58:30;;;;;;;2.35;2.15;;;14.50;99.90;;;;;;5052965;28;20394;-84
2021/08/01 13:01:03;;;;;;;2.60;2.40;;;14.50;99.90;;;;;;5052161;28;20045;-83
2021/08/01 13:03:45;;;;;;;2.80;2.60;;;14.60;99.90;;;;;;5020150;28;20045;-83
2021/08/01 13:06:15;;;;;;;3.53;2.17;;;14.60;99.90;;;;;;5051762;28;20544;-80
2021/08/01 13:08:51;;;;;;;4.28;2.03;;;14.50;99.90;;;;;;5051832;28;20060;-80
2021/08/01 13:11:22;;;;;;;3.25;2.33;;;14.50;99.90;;;;;;5052529;28;20041;-80
2021/08/01 13:14:06;;;;;;;2.88;2.28;;;14.50;99.90;;;;;;5052782;28;20488;-80